sensor_id;sensor_type;location;lat;lon;timestamp;pressure;altitude;pressure_sealevel;temperature;humidity
74228;BME280;62587;52.352;5.006;2022-08-21T00:02:17;101629.38;;;26.87;45.08
74228;BME280;62587;52.352;5.006;2022-08-21T00:04:43;101634.75;;;26.87;44.95
74228;BME280;62587;52.352;5.006;2022-08-21T00:07:08;101633.75;;;26.88;45.03
74228;BME280;62587;52.352;5.006;2022-08-21T00:09:33;101634.75;;;26.87;44.91
74228;BME280;62587;52.352;5.006;2022-08-21T00:11:59;101627.53;;;26.88;44.92
74228;BME280;62587;52.352;5.006;2022-08-21T00:14:24;101624.97;;;26.86;44.72
74228;BME280;62587;52.352;5.006;2022-08-21T00:16:50;101624.13;;;26.86;44.91
74228;BME280;62587;52.352;5.006;2022-08-21T00:19:15;101625.13;;;26.85;44.74
74228;BME280;62587;52.352;5.006;2022-08-21T00:21:41;101619.00;;;26.83;44.94
74228;BME280;62587;52.352;5.006;2022-08-21T00:24:06;101617.19;;;26.83;44.90
74228;BME280;62587;52.352;5.006;2022-08-21T00:26:32;101617.19;;;26.83;44.79
74228;BME280;62587;52.352;5.006;2022-08-21T00:28:57;101619.16;;;26.81;44.97
74228;BME280;62587;52.352;5.006;2022-08-21T00:31:22;101621.69;;;26.83;44.67
74228;BME280;62587;52.352;5.006;2022-08-21T00:33:48;101620.88;;;26.82;44.76
74228;BME280;62587;52.352;5.006;2022-08-21T00:36:13;101613.78;;;26.81;44.88
74228;BME280;62587;52.352;5.006;2022-08-21T00:38:39;101607.81;;;26.78;44.71
74228;BME280;62587;52.352;5.006;2022-08-21T00:41:07;101613.91;;;26.80;44.95
74228;BME280;62587;52.352;5.006;2022-08-21T00:43:35;101615.75;;;26.79;44.71
74228;BME280;62587;52.352;5.006;2022-08-21T00:46:03;101610.38;;;26.79;44.77
74228;BME280;62587;52.352;5.006;2022-08-21T00:48:30;101611.09;;;26.81;44.76
74228;BME280;62587;52.352;5.006;2022-08-21T00:50:58;101610.38;;;26.79;44.75
74228;BME280;62587;52.352;5.006;2022-08-21T00:53:24;101620.41;;;26.77;44.83
74228;BME280;62587;52.352;5.006;2022-08-21T00:55:51;101618.44;;;26.79;44.59
74228;BME280;62587;52.352;5.006;2022-08-21T00:58:17;101621.47;;;26.75;44.52
74228;BME280;62587;52.352;5.006;2022-08-21T01:00:46;101612.56;;;26.74;44.71
74228;BME280;62587;52.352;5.006;2022-08-21T01:03:17;101610.03;;;26.73;44.85
74228;BME280;62587;52.352;5.006;2022-08-21T01:05:43;101610.03;;;26.73;44.49
74228;BME280;62587;52.352;5.006;2022-08-21T01:08:10;101606.34;;;26.74;44.95
74228;BME280;62587;52.352;5.006;2022-08-21T01:10:36;101608.16;;;26.73;44.77
74228;BME280;62587;52.352;5.006;2022-08-21T01:13:03;101613.53;;;26.73;44.81
74228;BME280;62587;52.352;5.006;2022-08-21T01:15:32;101609.28;;;26.71;44.89
74228;BME280;62587;52.352;5.006;2022-08-21T01:17:58;101609.28;;;26.71;44.91
74228;BME280;62587;52.352;5.006;2022-08-21T01:20:25;101610.13;;;26.71;44.63
74228;BME280;62587;52.352;5.006;2022-08-21T01:22:50;101617.34;;;26.71;44.72
74228;BME280;62587;52.352;5.006;2022-08-21T01:25:16;101610.53;;;26.67;44.80
74228;BME280;62587;52.352;5.006;2022-08-21T01:27:45;101616.50;;;26.70;44.93
74228;BME280;62587;52.352;5.006;2022-08-21T01:30:16;101620.03;;;26.71;44.93
74228;BME280;62587;52.352;5.006;2022-08-21T01:32:43;101608.31;;;26.72;44.70
74228;BME280;62587;52.352;5.006;2022-08-21T01:35:10;101611.97;;;26.71;44.72
74228;BME280;62587;52.352;5.006;2022-08-21T01:37:36;101616.22;;;26.73;44.49
74228;BME280;62587;52.352;5.006;2022-08-21T01:40:04;101617.34;;;26.71;44.85
74228;BME280;62587;52.352;5.006;2022-08-21T01:42:30;101610.84;;;26.73;44.57
74228;BME280;62587;52.352;5.006;2022-08-21T01:44:55;101609.16;;;26.72;44.69
74228;BME280;62587;52.352;5.006;2022-08-21T01:47:22;101610.28;;;26.70;44.80
74228;BME280;62587;52.352;5.006;2022-08-21T01:49:47;101608.69;;;26.67;44.66
74228;BME280;62587;52.352;5.006;2022-08-21T01:52:13;101608.09;;;26.63;44.83
74228;BME280;62587;52.352;5.006;2022-08-21T01:54:39;101613.09;;;26.68;44.98
74228;BME280;62587;52.352;5.006;2022-08-21T01:57:05;101605.03;;;26.68;44.81
74228;BME280;62587;52.352;5.006;2022-08-21T01:59:31;101597.09;;;26.67;44.76
74228;BME280;62587;52.352;5.006;2022-08-21T02:01:57;101601.50;;;26.68;44.72
74228;BME280;62587;52.352;5.006;2022-08-21T02:04:22;101590.88;;;26.66;44.76
74228;BME280;62587;52.352;5.006;2022-08-21T02:06:48;101591.00;;;26.65;45.09
74228;BME280;62587;52.352;5.006;2022-08-21T02:09:14;101582.81;;;26.66;44.95
74228;BME280;62587;52.352;5.006;2022-08-21T02:11:40;101585.03;;;26.61;45.07
74228;BME280;62587;52.352;5.006;2022-08-21T02:14:10;101585.03;;;26.61;45.17
74228;BME280;62587;52.352;5.006;2022-08-21T02:16:37;101574.16;;;26.63;45.05
74228;BME280;62587;52.352;5.006;2022-08-21T02:19:03;101583.09;;;26.63;44.91
74228;BME280;62587;52.352;5.006;2022-08-21T02:21:29;101577.81;;;26.61;45.28
74228;BME280;62587;52.352;5.006;2022-08-21T02:23:54;101574.28;;;26.61;44.98
74228;BME280;62587;52.352;5.006;2022-08-21T02:26:20;101576.97;;;26.61;45.15
74228;BME280;62587;52.352;5.006;2022-08-21T02:28:45;101580.50;;;26.61;45.16
74228;BME280;62587;52.352;5.006;2022-08-21T02:31:11;101581.38;;;26.62;45.15
74228;BME280;62587;52.352;5.006;2022-08-21T02:33:36;101581.38;;;26.62;45.07
74228;BME280;62587;52.352;5.006;2022-08-21T02:36:03;101588.47;;;26.63;44.98
74228;BME280;62587;52.352;5.006;2022-08-21T02:38:31;101585.78;;;26.63;45.39
74228;BME280;62587;52.352;5.006;2022-08-21T02:40:59;101583.19;;;26.61;45.17
74228;BME280;62587;52.352;5.006;2022-08-21T02:43:26;101578.69;;;26.62;44.98
74228;BME280;62587;52.352;5.006;2022-08-21T02:45:54;101578.44;;;26.65;45.12
74228;BME280;62587;52.352;5.006;2022-08-21T02:48:23;101576.97;;;26.61;44.94
74228;BME280;62587;52.352;5.006;2022-08-21T02:50:55;101575.13;;;26.61;45.16
74228;BME280;62587;52.352;5.006;2022-08-21T02:53:21;101571.75;;;26.59;45.35
74228;BME280;62587;52.352;5.006;2022-08-21T02:55:50;101563.81;;;26.58;45.17
74228;BME280;62587;52.352;5.006;2022-08-21T02:58:18;101567.72;;;26.54;45.13
74228;BME280;62587;52.352;5.006;2022-08-21T03:00:44;101569.44;;;26.55;45.14
74228;BME280;62587;52.352;5.006;2022-08-21T03:03:10;101571.28;;;26.54;45.69
74228;BME280;62587;52.352;5.006;2022-08-21T03:05:36;101569.44;;;26.55;45.37
74228;BME280;62587;52.352;5.006;2022-08-21T03:08:05;101563.94;;;26.56;45.18
74228;BME280;62587;52.352;5.006;2022-08-21T03:10:35;101555.16;;;26.54;45.31
74228;BME280;62587;52.352;5.006;2022-08-21T03:13:00;101560.69;;;26.53;45.33
74228;BME280;62587;52.352;5.006;2022-08-21T03:15:27;101553.94;;;26.58;45.41
74228;BME280;62587;52.352;5.006;2022-08-21T03:17:53;101548.81;;;26.55;45.31
74228;BME280;62587;52.352;5.006;2022-08-21T03:20:22;101546.38;;;26.52;45.38
74228;BME280;62587;52.352;5.006;2022-08-21T03:22:49;101548.34;;;26.50;45.36
74228;BME280;62587;52.352;5.006;2022-08-21T03:25:15;101549.31;;;26.49;45.41
74228;BME280;62587;52.352;5.006;2022-08-21T03:27:41;101548.94;;;26.54;45.37
74228;BME280;62587;52.352;5.006;2022-08-21T03:30:07;101540.44;;;26.49;45.28
74228;BME280;62587;52.352;5.006;2022-08-21T03:32:33;101541.16;;;26.51;45.29
74228;BME280;62587;52.352;5.006;2022-08-21T03:35:00;101531.63;;;26.47;45.54
74228;BME280;62587;52.352;5.006;2022-08-21T03:37:27;101540.69;;;26.46;45.50
74228;BME280;62587;52.352;5.006;2022-08-21T03:39:52;101534.31;;;26.47;45.53
74228;BME280;62587;52.352;5.006;2022-08-21T03:42:18;101530.94;;;26.45;45.79
74228;BME280;62587;52.352;5.006;2022-08-21T03:44:43;101527.13;;;26.47;45.35
74228;BME280;62587;52.352;5.006;2022-08-21T03:47:09;101534.94;;;26.50;45.60
74228;BME280;62587;52.352;5.006;2022-08-21T03:49:35;101527.00;;;26.49;45.33
74228;BME280;62587;52.352;5.006;2022-08-21T03:52:01;101536.03;;;26.48;45.33
74228;BME280;62587;52.352;5.006;2022-08-21T03:54:26;101531.63;;;26.47;45.58
74228;BME280;62587;52.352;5.006;2022-08-21T03:56:51;101527.97;;;26.48;45.38
74228;BME280;62587;52.352;5.006;2022-08-21T03:59:17;101524.31;;;26.49;45.46
74228;BME280;62587;52.352;5.006;2022-08-21T04:01:57;101536.03;;;26.48;45.27
74228;BME280;62587;52.352;5.006;2022-08-21T04:04:24;101525.31;;;26.48;45.32
74228;BME280;62587;52.352;5.006;2022-08-21T04:06:50;101527.13;;;26.47;45.30
74228;BME280;62587;52.352;5.006;2022-08-21T04:09:16;101522.59;;;26.48;45.36
74228;BME280;62587;52.352;5.006;2022-08-21T04:11:42;101528.69;;;26.50;45.26
74228;BME280;62587;52.352;5.006;2022-08-21T04:14:07;101529.81;;;26.47;45.56
74228;BME280;62587;52.352;5.006;2022-08-21T04:16:33;101535.91;;;26.49;45.48
74228;BME280;62587;52.352;5.006;2022-08-21T04:18:59;101535.31;;;26.46;45.46
74228;BME280;62587;52.352;5.006;2022-08-21T04:21:24;101541.56;;;26.46;45.34
74228;BME280;62587;52.352;5.006;2022-08-21T04:23:49;101536.53;;;26.42;45.47
74228;BME280;62587;52.352;5.006;2022-08-21T04:26:15;101541.09;;;26.41;45.69
74228;BME280;62587;52.352;5.006;2022-08-21T04:28:41;101541.91;;;26.42;45.29
74228;BME280;62587;52.352;5.006;2022-08-21T04:31:07;101542.19;;;26.39;45.59
74228;BME280;62587;52.352;5.006;2022-08-21T04:33:32;101543.06;;;26.39;45.38
74228;BME280;62587;52.352;5.006;2022-08-21T04:35:58;101545.59;;;26.41;45.62
74228;BME280;62587;52.352;5.006;2022-08-21T04:38:23;101550.72;;;26.44;45.24
74228;BME280;62587;52.352;5.006;2022-08-21T04:40:49;101551.13;;;26.39;45.31
74228;BME280;62587;52.352;5.006;2022-08-21T04:43:15;101551.13;;;26.39;45.37
74228;BME280;62587;52.352;5.006;2022-08-21T04:45:45;101558.31;;;26.39;45.41
74228;BME280;62587;52.352;5.006;2022-08-21T04:48:12;101553.06;;;26.37;45.48
74228;BME280;62587;52.352;5.006;2022-08-21T04:50:49;101553.19;;;26.36;45.86
74228;BME280;62587;52.352;5.006;2022-08-21T04:53:21;101550.25;;;26.39;45.31
74228;BME280;62587;52.352;5.006;2022-08-21T04:55:47;101553.66;;;26.41;45.06
74228;BME280;62587;52.352;5.006;2022-08-21T04:58:15;101549.25;;;26.40;45.15
74228;BME280;62587;52.352;5.006;2022-08-21T05:00:43;101556.22;;;26.42;45.08
74228;BME280;62587;52.352;5.006;2022-08-21T05:03:10;101559.75;;;26.43;45.07
74228;BME280;62587;52.352;5.006;2022-08-21T05:05:37;101550.97;;;26.41;45.13
74228;BME280;62587;52.352;5.006;2022-08-21T05:08:04;101559.75;;;26.43;45.29
74228;BME280;62587;52.352;5.006;2022-08-21T05:10:30;101561.72;;;26.41;45.23
74228;BME280;62587;52.352;5.006;2022-08-21T05:12:56;101546.56;;;26.40;44.94
74228;BME280;62587;52.352;5.006;2022-08-21T05:15:22;101545.75;;;26.39;45.30
74228;BME280;62587;52.352;5.006;2022-08-21T05:17:47;101552.66;;;26.42;45.29
74228;BME280;62587;52.352;5.006;2022-08-21T05:20:13;101549.00;;;26.43;44.87
74228;BME280;62587;52.352;5.006;2022-08-21T05:22:39;101558.50;;;26.47;44.71
74228;BME280;62587;52.352;5.006;2022-08-21T05:25:06;101555.94;;;26.45;45.05
74228;BME280;62587;52.352;5.006;2022-08-21T05:27:31;101558.63;;;26.45;44.98
74228;BME280;62587;52.352;5.006;2022-08-21T05:29:57;101556.91;;;26.44;44.93
74228;BME280;62587;52.352;5.006;2022-08-21T05:32:22;101558.88;;;26.42;45.19
74228;BME280;62587;52.352;5.006;2022-08-21T05:34:48;101568.53;;;26.45;45.07
74228;BME280;62587;52.352;5.006;2022-08-21T05:37:13;101564.97;;;26.44;44.95
74228;BME280;62587;52.352;5.006;2022-08-21T05:39:39;101560.47;;;26.45;44.91
74228;BME280;62587;52.352;5.006;2022-08-21T05:42:05;101563.75;;;26.48;44.80
74228;BME280;62587;52.352;5.006;2022-08-21T05:44:30;101568.53;;;26.45;44.96
74228;BME280;62587;52.352;5.006;2022-08-21T05:47:06;101569.25;;;26.47;45.12
74228;BME280;62587;52.352;5.006;2022-08-21T05:49:32;101571.81;;;26.48;44.91
74228;BME280;62587;52.352;5.006;2022-08-21T05:51:57;101568.13;;;26.49;44.87
74228;BME280;62587;52.352;5.006;2022-08-21T05:54:23;101570.09;;;26.47;45.09
74228;BME280;62587;52.352;5.006;2022-08-21T05:56:48;101571.22;;;26.45;45.22
74228;BME280;62587;52.352;5.006;2022-08-21T05:59:14;101571.09;;;26.46;45.02
74228;BME280;62587;52.352;5.006;2022-08-21T06:01:39;101566.69;;;26.45;45.01
74228;BME280;62587;52.352;5.006;2022-08-21T06:04:05;101571.81;;;26.48;45.05
74228;BME280;62587;52.352;5.006;2022-08-21T06:06:32;101568.03;;;26.51;44.96
74228;BME280;62587;52.352;5.006;2022-08-21T06:08:58;101553.59;;;26.52;44.81
74228;BME280;62587;52.352;5.006;2022-08-21T06:11:23;101558.09;;;26.51;45.05
74228;BME280;62587;52.352;5.006;2022-08-21T06:13:48;101565.19;;;26.52;45.13
74228;BME280;62587;52.352;5.006;2022-08-21T06:16:15;101561.94;;;26.49;45.01
74228;BME280;62587;52.352;5.006;2022-08-21T06:18:42;101561.94;;;26.49;45.01
74228;BME280;62587;52.352;5.006;2022-08-21T06:21:08;101562.50;;;26.52;45.10
74228;BME280;62587;52.352;5.006;2022-08-21T06:23:34;101561.78;;;26.50;45.28
74228;BME280;62587;52.352;5.006;2022-08-21T06:26:04;101568.72;;;26.53;45.05
74228;BME280;62587;52.352;5.006;2022-08-21T06:28:30;101566.16;;;26.51;45.28
74228;BME280;62587;52.352;5.006;2022-08-21T06:30:56;101567.88;;;26.52;45.22
74228;BME280;62587;52.352;5.006;2022-08-21T06:33:21;101568.59;;;26.54;45.08
74228;BME280;62587;52.352;5.006;2022-08-21T06:35:47;101573.25;;;26.52;45.22
74228;BME280;62587;52.352;5.006;2022-08-21T06:38:12;101576.41;;;26.57;44.90
74228;BME280;62587;52.352;5.006;2022-08-21T06:40:38;101566.63;;;26.56;44.96
74228;BME280;62587;52.352;5.006;2022-08-21T06:43:13;101560.41;;;26.56;45.08
74228;BME280;62587;52.352;5.006;2022-08-21T06:45:39;101556.03;;;26.55;45.00
74228;BME280;62587;52.352;5.006;2022-08-21T06:48:05;101558.56;;;26.56;45.09
74228;BME280;62587;52.352;5.006;2022-08-21T06:50:33;101559.81;;;26.52;45.32
74228;BME280;62587;52.352;5.006;2022-08-21T06:53:08;101559.56;;;26.55;45.29
74228;BME280;62587;52.352;5.006;2022-08-21T06:55:34;101553.78;;;26.60;45.21
74228;BME280;62587;52.352;5.006;2022-08-21T06:58:01;101556.03;;;26.55;45.40
74228;BME280;62587;52.352;5.006;2022-08-21T07:00:27;101557.75;;;26.56;45.32
74228;BME280;62587;52.352;5.006;2022-08-21T07:02:53;101559.66;;;26.54;45.52
74228;BME280;62587;52.352;5.006;2022-08-21T07:05:18;101566.31;;;26.50;45.68
74228;BME280;62587;52.352;5.006;2022-08-21T07:07:45;101568.97;;;26.50;45.71
74228;BME280;62587;52.352;5.006;2022-08-21T07:10:10;101563.47;;;26.51;45.67
74228;BME280;62587;52.352;5.006;2022-08-21T07:12:36;101566.03;;;26.53;45.54
74228;BME280;62587;52.352;5.006;2022-08-21T07:15:01;101558.09;;;26.51;45.67
74228;BME280;62587;52.352;5.006;2022-08-21T07:17:26;101559.31;;;26.58;45.75
74228;BME280;62587;52.352;5.006;2022-08-21T07:19:52;101567.22;;;26.60;45.91
74228;BME280;62587;52.352;5.006;2022-08-21T07:22:19;101562.16;;;26.67;45.61
74228;BME280;62587;52.352;5.006;2022-08-21T07:24:45;101565.56;;;26.69;45.88
74228;BME280;62587;52.352;5.006;2022-08-21T07:27:11;101563.16;;;26.66;45.81
74228;BME280;62587;52.352;5.006;2022-08-21T07:29:36;101565.00;;;26.65;45.90
74228;BME280;62587;52.352;5.006;2022-08-21T07:32:02;101570.47;;;26.63;46.13
74228;BME280;62587;52.352;5.006;2022-08-21T07:34:27;101567.09;;;26.61;46.40
74228;BME280;62587;52.352;5.006;2022-08-21T07:36:53;101569.66;;;26.63;46.47
74228;BME280;62587;52.352;5.006;2022-08-21T07:39:18;101570.63;;;26.62;46.82
74228;BME280;62587;52.352;5.006;2022-08-21T07:41:43;101574.28;;;26.61;46.70
74228;BME280;62587;52.352;5.006;2022-08-21T07:44:09;101574.44;;;26.59;46.67
74228;BME280;62587;52.352;5.006;2022-08-21T07:46:34;101576.84;;;26.63;46.93
74228;BME280;62587;52.352;5.006;2022-08-21T07:48:59;101578.69;;;26.62;46.94
74228;BME280;62587;52.352;5.006;2022-08-21T07:51:26;101574.03;;;26.64;46.93
74228;BME280;62587;52.352;5.006;2022-08-21T07:53:55;101573.53;;;26.70;46.82
74228;BME280;62587;52.352;5.006;2022-08-21T07:56:21;101574.34;;;26.71;46.74
74228;BME280;62587;52.352;5.006;2022-08-21T07:58:46;101578.75;;;26.72;47.05
74228;BME280;62587;52.352;5.006;2022-08-21T08:01:12;101572.19;;;26.65;47.24
74228;BME280;62587;52.352;5.006;2022-08-21T08:03:39;101570.69;;;26.72;47.07
74228;BME280;62587;52.352;5.006;2022-08-21T08:06:05;101576.06;;;26.72;46.89
74228;BME280;62587;52.352;5.006;2022-08-21T08:08:31;101575.91;;;26.73;46.91
74228;BME280;62587;52.352;5.006;2022-08-21T08:10:58;101580.47;;;26.73;47.27
74228;BME280;62587;52.352;5.006;2022-08-21T08:13:24;101573.22;;;26.73;46.97
74228;BME280;62587;52.352;5.006;2022-08-21T08:15:50;101572.25;;;26.74;47.11
74228;BME280;62587;52.352;5.006;2022-08-21T08:18:16;101576.69;;;26.75;47.18
74228;BME280;62587;52.352;5.006;2022-08-21T08:20:41;101576.56;;;26.77;47.38
74228;BME280;62587;52.352;5.006;2022-08-21T08:23:10;101575.69;;;26.76;47.38
74228;BME280;62587;52.352;5.006;2022-08-21T08:25:36;101573.72;;;26.78;47.41
74228;BME280;62587;52.352;5.006;2022-08-21T08:28:01;101571.03;;;26.78;47.70
74228;BME280;62587;52.352;5.006;2022-08-21T08:30:26;101559.31;;;26.79;47.85
74228;BME280;62587;52.352;5.006;2022-08-21T08:32:52;101561.16;;;26.79;47.90
74228;BME280;62587;52.352;5.006;2022-08-21T08:35:17;101565.41;;;26.81;48.08
74228;BME280;62587;52.352;5.006;2022-08-21T08:37:43;101560.03;;;26.81;48.11
74228;BME280;62587;52.352;5.006;2022-08-21T08:40:24;101563.72;;;26.80;48.22
74228;BME280;62587;52.352;5.006;2022-08-21T08:42:54;101557.50;;;26.80;48.03
74228;BME280;62587;52.352;5.006;2022-08-21T08:45:21;101563.72;;;26.80;48.32
74228;BME280;62587;52.352;5.006;2022-08-21T08:47:54;101551.09;;;26.81;48.03
74228;BME280;62587;52.352;5.006;2022-08-21T08:50:44;101551.72;;;26.84;48.00
74228;BME280;62587;52.352;5.006;2022-08-21T08:53:35;101551.56;;;26.86;47.93
74228;BME280;62587;52.352;5.006;2022-08-21T08:56:07;101546.91;;;26.88;48.42
74228;BME280;62587;52.352;5.006;2022-08-21T08:58:38;101546.78;;;26.89;48.66
74228;BME280;62587;52.352;5.006;2022-08-21T09:01:09;101552.16;;;26.89;50.08
74228;BME280;62587;52.352;5.006;2022-08-21T09:03:36;101544.66;;;26.93;49.64
74228;BME280;62587;52.352;5.006;2022-08-21T09:11:32;101556.34;;;26.41;51.10
74228;BME280;62587;52.352;5.006;2022-08-21T09:14:25;101556.28;;;26.52;50.71
74228;BME280;62587;52.352;5.006;2022-08-21T09:17:02;101562.50;;;26.32;51.35
74228;BME280;62587;52.352;5.006;2022-08-21T09:25:12;101561.94;;;26.06;51.51
74228;BME280;62587;52.352;5.006;2022-08-21T09:27:40;101557.03;;;25.90;51.80
74228;BME280;62587;52.352;5.006;2022-08-21T09:30:06;101560.91;;;25.98;51.25
74228;BME280;62587;52.352;5.006;2022-08-21T09:32:34;101568.72;;;25.89;51.31
74228;BME280;62587;52.352;5.006;2022-08-21T09:35:13;101569.88;;;25.76;51.39
74228;BME280;62587;52.352;5.006;2022-08-21T09:37:54;101567.56;;;25.71;51.85
74228;BME280;62587;52.352;5.006;2022-08-21T09:40:31;101565.22;;;25.89;51.77
74228;BME280;62587;52.352;5.006;2022-08-21T09:43:01;101560.66;;;26.01;51.63
74228;BME280;62587;52.352;5.006;2022-08-21T09:45:27;101558.16;;;26.09;51.29
74228;BME280;62587;52.352;5.006;2022-08-21T09:47:53;101556.69;;;26.16;51.06
74228;BME280;62587;52.352;5.006;2022-08-21T09:50:27;101550.69;;;26.23;50.98
74228;BME280;62587;52.352;5.006;2022-08-21T09:52:58;101550.03;;;26.31;50.55
74228;BME280;62587;52.352;5.006;2022-08-21T09:55:34;101550.38;;;26.37;50.57
74228;BME280;62587;52.352;5.006;2022-08-21T09:58:34;101542.66;;;26.44;50.21
74228;BME280;62587;52.352;5.006;2022-08-21T10:01:01;101536.75;;;26.50;50.13
74228;BME280;62587;52.352;5.006;2022-08-21T10:03:27;101553.47;;;26.53;50.01
74228;BME280;62587;52.352;5.006;2022-08-21T10:06:02;101557.59;;;26.57;49.92
74228;BME280;62587;52.352;5.006;2022-08-21T10:08:32;101554.38;;;26.63;49.81
74228;BME280;62587;52.352;5.006;2022-08-21T10:11:10;101546.06;;;26.67;49.51
74228;BME280;62587;52.352;5.006;2022-08-21T10:13:43;101558.22;;;26.71;49.54
74228;BME280;62587;52.352;5.006;2022-08-21T10:16:18;101556.41;;;26.71;49.46
74228;BME280;62587;52.352;5.006;2022-08-21T10:19:02;101560.66;;;26.74;49.31
74228;BME280;62587;52.352;5.006;2022-08-21T10:21:40;101549.19;;;26.72;49.48
74228;BME280;62587;52.352;5.006;2022-08-21T10:27:26;101542.69;;;26.74;49.20
74228;BME280;62587;52.352;5.006;2022-08-21T10:30:14;101546.38;;;26.73;49.31
74228;BME280;62587;52.352;5.006;2022-08-21T10:35:29;101535.38;;;26.76;49.08
74228;BME280;62587;52.352;5.006;2022-08-21T10:38:21;101545.63;;;26.82;48.44
74228;BME280;62587;52.352;5.006;2022-08-21T10:40:53;101543.06;;;26.81;48.54
74228;BME280;62587;52.352;5.006;2022-08-21T10:46:20;101540.41;;;26.70;48.10
74228;BME280;62587;52.352;5.006;2022-08-21T10:49:28;101539.16;;;26.74;48.27
74228;BME280;62587;52.352;5.006;2022-08-21T10:55:10;101540.09;;;26.84;47.67
74228;BME280;62587;52.352;5.006;2022-08-21T10:57:46;101540.09;;;26.84;47.62
74228;BME280;62587;52.352;5.006;2022-08-21T11:00:16;101542.78;;;26.84;47.50
74228;BME280;62587;52.352;5.006;2022-08-21T11:02:50;101534.47;;;26.87;47.34
74228;BME280;62587;52.352;5.006;2022-08-21T11:05:34;101535.03;;;26.90;47.10
74228;BME280;62587;52.352;5.006;2022-08-21T11:13:12;101538.53;;;26.81;46.97
74228;BME280;62587;52.352;5.006;2022-08-21T11:15:45;101529.22;;;26.85;46.81
74228;BME280;62587;52.352;5.006;2022-08-21T11:21:04;101535.75;;;26.92;46.12
74228;BME280;62587;52.352;5.006;2022-08-21T11:23:46;101533.66;;;26.96;45.83
74228;BME280;62587;52.352;5.006;2022-08-21T11:26:18;101533.44;;;27.08;45.78
74228;BME280;62587;52.352;5.006;2022-08-21T11:28:55;101534.59;;;27.15;45.12
74228;BME280;62587;52.352;5.006;2022-08-21T11:37:27;101542.69;;;27.25;44.71
74228;BME280;62587;52.352;5.006;2022-08-21T11:45:45;101552.31;;;27.18;44.62
74228;BME280;62587;52.352;5.006;2022-08-21T11:50:47;101554.78;;;27.10;44.83
74228;BME280;62587;52.352;5.006;2022-08-21T11:53:26;101557.34;;;27.11;44.67
74228;BME280;62587;52.352;5.006;2022-08-21T11:55:58;101556.56;;;27.20;44.10
74228;BME280;62587;52.352;5.006;2022-08-21T11:58:38;101555.03;;;27.27;44.05
74228;BME280;62587;52.352;5.006;2022-08-21T12:01:19;101553.91;;;27.30;43.98
74228;BME280;62587;52.352;5.006;2022-08-21T12:03:56;101557.25;;;27.22;44.20
74228;BME280;62587;52.352;5.006;2022-08-21T12:06:35;101546.06;;;27.17;44.18
74228;BME280;62587;52.352;5.006;2022-08-21T12:12:12;101558.97;;;27.33;43.69
74228;BME280;62587;52.352;5.006;2022-08-21T12:14:47;101549.66;;;27.27;43.74
74228;BME280;62587;52.352;5.006;2022-08-21T12:17:24;101560.56;;;27.36;43.62
74228;BME280;62587;52.352;5.006;2022-08-21T12:20:00;101561.88;;;27.41;43.24
74228;BME280;62587;52.352;5.006;2022-08-21T12:22:39;101562.75;;;27.42;42.82
74228;BME280;62587;52.352;5.006;2022-08-21T12:25:16;101563.00;;;27.39;43.28
74228;BME280;62587;52.352;5.006;2022-08-21T12:27:51;101565.59;;;27.40;43.32
74228;BME280;62587;52.352;5.006;2022-08-21T12:30:34;101570.97;;;27.40;42.80
74228;BME280;62587;52.352;5.006;2022-08-21T12:33:03;101569.25;;;27.39;43.17
74228;BME280;62587;52.352;5.006;2022-08-21T12:35:40;101565.69;;;27.39;43.06
74228;BME280;62587;52.352;5.006;2022-08-21T12:38:15;101568.63;;;27.36;43.33
74228;BME280;62587;52.352;5.006;2022-08-21T12:40:50;101568.38;;;27.39;43.31
74228;BME280;62587;52.352;5.006;2022-08-21T12:43:34;101563.59;;;27.42;43.10
74228;BME280;62587;52.352;5.006;2022-08-21T12:46:01;101567.41;;;27.40;42.94
74228;BME280;62587;52.352;5.006;2022-08-21T12:48:54;101567.06;;;27.33;43.20
74228;BME280;62587;52.352;5.006;2022-08-21T12:51:29;101562.41;;;27.35;43.33
74228;BME280;62587;52.352;5.006;2022-08-21T12:53:58;101583.75;;;27.27;42.79
74228;BME280;62587;52.352;5.006;2022-08-21T12:56:33;101583.88;;;26.95;41.73
74228;BME280;62587;52.352;5.006;2022-08-21T12:59:07;101582.53;;;26.69;42.13
74228;BME280;62587;52.352;5.006;2022-08-21T13:01:43;101584.13;;;26.51;43.04
74228;BME280;62587;52.352;5.006;2022-08-21T13:04:14;101561.13;;;26.37;43.87
74228;BME280;62587;52.352;5.006;2022-08-21T13:06:43;101581.63;;;26.38;43.30
74228;BME280;62587;52.352;5.006;2022-08-21T13:09:14;101582.31;;;26.20;43.98
74228;BME280;62587;52.352;5.006;2022-08-21T13:11:42;101583.53;;;26.16;44.13
74228;BME280;62587;52.352;5.006;2022-08-21T13:16:56;101580.75;;;26.17;44.44
74228;BME280;62587;52.352;5.006;2022-08-21T13:19:22;101577.53;;;26.23;44.37
74228;BME280;62587;52.352;5.006;2022-08-21T13:21:48;101583.28;;;26.19;43.96
74228;BME280;62587;52.352;5.006;2022-08-21T13:24:17;101588.09;;;26.15;43.90
74228;BME280;62587;52.352;5.006;2022-08-21T13:26:43;101583.81;;;26.02;44.45
74228;BME280;62587;52.352;5.006;2022-08-21T13:29:14;101584.09;;;25.87;44.17
74228;BME280;62587;52.352;5.006;2022-08-21T13:31:46;101579.88;;;25.63;44.55
74228;BME280;62587;52.352;5.006;2022-08-21T13:34:11;101582.69;;;25.61;44.64
74228;BME280;62587;52.352;5.006;2022-08-21T13:36:42;101582.81;;;25.49;45.44
74228;BME280;62587;52.352;5.006;2022-08-21T13:39:11;101587.19;;;25.61;45.21
74228;BME280;62587;52.352;5.006;2022-08-21T13:41:39;101578.66;;;25.67;45.24
74228;BME280;62587;52.352;5.006;2022-08-21T13:44:19;101588.66;;;25.43;45.96
74228;BME280;62587;52.352;5.006;2022-08-21T13:46:45;101586.09;;;25.41;45.99
74228;BME280;62587;52.352;5.006;2022-08-21T13:49:14;101586.59;;;25.35;46.24
74228;BME280;62587;52.352;5.006;2022-08-21T13:51:40;101583.16;;;25.22;46.60